createdAt,value
2022-08-11T00:02:01.582Z,7.95
2022-08-11T00:04:39.364Z,8.18
2022-08-11T00:07:08.564Z,7.40
2022-08-11T00:09:40.110Z,7.10
2022-08-11T00:12:15.634Z,8.20
2022-08-11T00:14:46.702Z,8.43
2022-08-11T00:17:17.216Z,8.80
2022-08-11T00:20:12.931Z,7.25
2022-08-11T00:22:40.181Z,7.40
2022-08-11T00:25:15.309Z,6.70
2022-08-11T00:27:44.188Z,5.88
2022-08-11T00:30:15.605Z,6.15
2022-08-11T00:32:56.198Z,5.15
2022-08-11T00:35:51.317Z,4.53
2022-08-11T00:38:19.305Z,3.33
2022-08-11T00:40:58.394Z,3.75
2022-08-11T00:43:51.683Z,2.55
2022-08-11T00:46:36.558Z,1.90
2022-08-11T00:49:17.882Z,1.83
2022-08-11T00:52:12.793Z,2.50
2022-08-11T00:55:34.853Z,1.92
2022-08-11T00:59:01.297Z,1.83
2022-08-11T01:01:48.385Z,1.67
2022-08-11T01:04:56.124Z,1.73
2022-08-11T01:08:29.065Z,1.52
2022-08-11T01:11:55.590Z,1.75
2022-08-11T01:15:12.174Z,1.48
2022-08-11T01:18:18.829Z,2.00
2022-08-11T01:21:42.521Z,1.15
2022-08-11T01:24:58.830Z,1.48
2022-08-11T01:28:17.763Z,1.73
2022-08-11T01:31:32.347Z,1.35
2022-08-11T01:34:50.925Z,1.60
2022-08-11T01:38:22.774Z,1.33
2022-08-11T01:41:48.017Z,1.67
2022-08-11T01:45:13.349Z,1.40
2022-08-11T01:47:54.337Z,1.30
2022-08-11T01:50:39.145Z,1.80
2022-08-11T01:53:19.485Z,1.30
2022-08-11T01:56:02.702Z,1.60
2022-08-11T01:58:44.190Z,1.70
2022-08-11T02:03:59.407Z,1.63
2022-08-11T02:06:56.122Z,1.70
2022-08-11T02:09:49.265Z,1.90
2022-08-11T02:12:42.176Z,1.75
2022-08-11T02:15:26.442Z,1.85
2022-08-11T02:18:07.222Z,1.70
2022-08-11T02:24:06.156Z,2.20
2022-08-11T02:26:37.729Z,1.67
2022-08-11T02:29:17.796Z,1.92
2022-08-11T02:32:29.926Z,2.47
2022-08-11T02:35:11.385Z,2.85
2022-08-11T02:37:52.328Z,3.17
2022-08-11T02:40:35.817Z,3.63
2022-08-11T02:43:15.354Z,3.03
2022-08-11T02:45:55.863Z,2.95
2022-08-11T02:48:58.844Z,2.40
2022-08-11T02:51:39.038Z,3.40
2022-08-11T02:54:16.358Z,3.70
2022-08-11T02:56:58.304Z,3.45
2022-08-11T02:59:52.302Z,3.00
2022-08-11T03:02:53.371Z,3.25
2022-08-11T03:08:51.461Z,2.92
2022-08-11T03:11:51.077Z,4.45
2022-08-11T03:14:45.882Z,3.60
2022-08-11T03:17:29.635Z,3.63
2022-08-11T03:20:24.998Z,3.15
2022-08-11T03:23:25.571Z,3.20
2022-08-11T03:26:01.949Z,3.10
2022-08-11T03:28:36.258Z,3.08
2022-08-11T03:31:25.286Z,2.70
2022-08-11T03:34:06.788Z,3.03
2022-08-11T03:37:17.151Z,2.45
2022-08-11T03:40:00.942Z,2.80
2022-08-11T03:42:41.424Z,2.67
2022-08-11T03:45:23.319Z,3.00
2022-08-11T03:48:15.372Z,2.80
2022-08-11T03:50:57.192Z,2.78
2022-08-11T03:53:49.427Z,2.40
2022-08-11T03:57:19.659Z,2.67
2022-08-11T04:00:16.188Z,2.40
2022-08-11T04:03:37.142Z,1.88
2022-08-11T04:06:38.242Z,2.85
2022-08-11T04:10:08.938Z,2.28
2022-08-11T04:13:16.721Z,1.92
2022-08-11T04:16:16.967Z,2.47
2022-08-11T04:19:31.105Z,2.30
2022-08-11T04:22:44.734Z,2.90
2022-08-11T04:25:57.444Z,2.20
2022-08-11T04:29:02.578Z,2.00
2022-08-11T04:31:44.277Z,1.73
2022-08-11T04:34:42.558Z,2.20
2022-08-11T04:37:39.207Z,1.87
2022-08-11T04:41:08.867Z,2.17
2022-08-11T04:44:31.899Z,3.45
2022-08-11T04:47:59.740Z,2.90
2022-08-11T04:51:16.341Z,2.20
2022-08-11T04:54:17.900Z,2.08
2022-08-11T04:57:07.405Z,2.17
2022-08-11T05:00:23.081Z,2.28
2022-08-11T05:03:44.684Z,2.00
2022-08-11T05:09:41.043Z,2.28
2022-08-11T05:12:30.985Z,2.03
2022-08-11T05:15:18.623Z,2.08
2022-08-11T05:18:16.867Z,2.17
2022-08-11T05:21:09.127Z,1.85
2022-08-11T05:24:06.410Z,1.50
2022-08-11T05:27:04.133Z,1.50
2022-08-11T05:30:01.273Z,1.50
2022-08-11T05:32:58.046Z,1.48
2022-08-11T05:36:02.338Z,1.63
2022-08-11T05:38:44.302Z,1.30
2022-08-11T05:41:33.203Z,1.63
2022-08-11T05:44:22.474Z,1.42
2022-08-11T05:47:09.493Z,1.90
2022-08-11T05:49:56.757Z,1.42
2022-08-11T05:52:49.196Z,1.38
2022-08-11T05:56:02.441Z,1.40
2022-08-11T05:58:42.965Z,1.20
2022-08-11T06:01:14.310Z,1.42
2022-08-11T06:04:04.445Z,2.78
2022-08-11T06:06:33.071Z,1.40
2022-08-11T06:09:02.839Z,1.23
2022-08-11T06:11:43.955Z,1.17
2022-08-11T06:14:16.490Z,1.65
2022-08-11T06:16:48.735Z,1.27
2022-08-11T06:19:17.969Z,1.55
2022-08-11T06:21:48.031Z,1.40
2022-08-11T06:24:17.577Z,1.05
2022-08-11T06:29:54.970Z,1.40
2022-08-11T06:32:28.571Z,1.15
2022-08-11T06:35:21.000Z,1.17
2022-08-11T06:38:09.512Z,1.45
2022-08-11T06:41:05.099Z,1.10
2022-08-11T06:43:55.741Z,1.42
2022-08-11T06:46:31.391Z,1.30
2022-08-11T06:49:03.434Z,1.50
2022-08-11T06:51:32.589Z,1.65
2022-08-11T06:54:05.521Z,1.40
2022-08-11T07:00:02.130Z,1.83
2022-08-11T07:02:35.101Z,1.35
2022-08-11T07:05:09.724Z,1.05
2022-08-11T07:08:44.538Z,1.10
2022-08-11T07:11:52.673Z,1.17
2022-08-11T07:14:43.695Z,1.20
2022-08-11T07:17:19.270Z,1.23
2022-08-11T07:20:12.677Z,1.05
2022-08-11T07:23:05.400Z,1.10
2022-08-11T07:25:55.163Z,1.52
2022-08-11T07:28:44.234Z,1.30
2022-08-11T07:31:15.829Z,1.42
2022-08-11T07:34:07.921Z,1.23
2022-08-11T07:36:44.045Z,1.08
2022-08-11T07:39:18.205Z,1.02
2022-08-11T07:41:48.977Z,1.40
2022-08-11T07:47:06.562Z,1.40
2022-08-11T07:49:56.583Z,1.30
2022-08-11T07:52:32.435Z,1.10
2022-08-11T07:55:03.581Z,1.13
2022-08-11T07:58:13.920Z,1.20
2022-08-11T08:01:09.880Z,1.40
2022-08-11T08:04:07.557Z,1.30
2022-08-11T08:06:54.716Z,1.25
2022-08-11T08:09:42.497Z,1.48
2022-08-11T08:12:29.664Z,1.20
2022-08-11T08:15:16.359Z,1.27
2022-08-11T08:18:09.476Z,1.30
2022-08-11T08:20:50.735Z,1.20
2022-08-11T08:23:33.056Z,1.48
2022-08-11T08:26:26.736Z,1.02
2022-08-11T08:28:55.885Z,1.20
2022-08-11T08:31:23.517Z,1.23
2022-08-11T08:33:52.766Z,1.08
2022-08-11T08:36:25.566Z,1.70
2022-08-11T08:38:55.220Z,1.20
2022-08-11T08:41:29.792Z,1.48
2022-08-11T08:44:21.103Z,1.17
2022-08-11T08:49:25.086Z,1.20
2022-08-11T08:52:01.868Z,1.33
2022-08-11T08:54:47.306Z,1.40
2022-08-11T08:57:20.025Z,1.40
2022-08-11T08:59:51.495Z,1.10
2022-08-11T09:02:33.803Z,1.05
2022-08-11T09:05:05.237Z,1.10
2022-08-11T09:07:39.410Z,1.17
2022-08-11T09:10:11.434Z,1.33
2022-08-11T09:12:43.578Z,1.20
2022-08-11T09:15:14.126Z,1.10
2022-08-11T09:17:47.739Z,2.70
2022-08-11T09:20:19.943Z,1.10
2022-08-11T09:24:06.484Z,3.75
2022-08-11T09:26:16.593Z,1.00
2022-08-11T09:28:48.973Z,1.30
2022-08-11T09:31:18.318Z,0.88
2022-08-11T09:33:55.947Z,0.90
2022-08-11T09:36:42.061Z,1.35
2022-08-11T09:39:31.157Z,1.20
2022-08-11T09:42:03.417Z,1.10
2022-08-11T09:44:48.709Z,1.33
2022-08-11T09:47:24.484Z,0.95
2022-08-11T09:49:59.843Z,0.98
2022-08-11T09:52:30.424Z,0.98
2022-08-11T09:54:59.444Z,1.05
2022-08-11T09:57:45.924Z,1.10
2022-08-11T10:00:17.499Z,1.00
2022-08-11T10:02:48.734Z,0.85
2022-08-11T10:05:38.014Z,0.80
2022-08-11T10:08:09.313Z,1.27
2022-08-11T10:10:39.830Z,0.82
2022-08-11T10:16:15.728Z,0.73
2022-08-11T10:18:53.603Z,0.90
2022-08-11T10:21:36.963Z,0.88
2022-08-11T10:24:25.438Z,0.80
2022-08-11T10:27:00.354Z,0.98
2022-08-11T10:29:52.062Z,1.00
2022-08-11T10:32:49.337Z,0.70
2022-08-11T10:35:27.907Z,0.70
2022-08-11T10:38:07.306Z,0.88
2022-08-11T10:40:40.348Z,0.70
2022-08-11T10:43:13.745Z,0.85
2022-08-11T10:46:03.736Z,0.70
2022-08-11T10:48:38.849Z,0.70
2022-08-11T10:51:13.934Z,0.70
2022-08-11T10:54:03.255Z,0.93
2022-08-11T10:56:54.199Z,0.70
2022-08-11T10:59:24.314Z,0.77
2022-08-11T11:01:54.602Z,1.00
2022-08-11T11:07:07.263Z,0.90
2022-08-11T11:09:44.050Z,0.50
2022-08-11T11:12:34.971Z,0.80
2022-08-11T11:15:21.985Z,0.80
2022-08-11T11:17:57.051Z,1.17
2022-08-11T11:20:37.221Z,32.20
2022-08-11T11:23:12.816Z,1.00
2022-08-11T11:26:31.252Z,0.95
2022-08-11T11:29:30.000Z,0.80
2022-08-11T11:32:19.825Z,1.00
2022-08-11T11:35:34.903Z,2.17
2022-08-11T11:38:06.170Z,0.82
2022-08-11T11:40:37.569Z,0.65
2022-08-11T11:43:07.189Z,1.02
2022-08-11T11:45:35.601Z,0.70
2022-08-11T11:48:05.029Z,1.05
2022-08-11T11:50:38.306Z,0.90
2022-08-11T11:53:11.182Z,0.68
2022-08-11T11:55:39.964Z,0.77
2022-08-11T11:58:26.039Z,0.90
2022-08-11T12:01:12.648Z,0.68
2022-08-11T12:03:42.116Z,0.90
2022-08-11T12:06:15.529Z,0.80
2022-08-11T12:08:45.437Z,1.35
2022-08-11T12:11:32.211Z,0.95
2022-08-11T12:14:04.754Z,0.80
2022-08-11T12:16:42.403Z,1.10
2022-08-11T12:19:13.677Z,0.77
2022-08-11T12:22:01.318Z,0.85
2022-08-11T12:24:47.696Z,0.70
2022-08-11T12:27:24.252Z,0.75
2022-08-11T12:29:59.442Z,0.80
2022-08-11T12:32:32.214Z,1.10
2022-08-11T12:35:01.491Z,1.02
2022-08-11T12:37:34.173Z,0.98
2022-08-11T12:40:43.475Z,0.95
2022-08-11T12:43:39.651Z,0.80
2022-08-11T12:46:15.497Z,0.90
2022-08-11T12:49:05.270Z,1.00
2022-08-11T12:52:13.399Z,0.95
2022-08-11T12:54:57.372Z,3.28
2022-08-11T12:57:50.180Z,0.88
2022-08-11T13:00:37.768Z,3.47
2022-08-11T13:03:27.609Z,1.60
2022-08-11T13:05:59.927Z,1.00
2022-08-11T13:08:30.745Z,0.85
2022-08-11T13:11:20.191Z,0.95
2022-08-11T13:13:57.209Z,1.10
2022-08-11T13:16:30.517Z,1.00
2022-08-11T13:19:01.348Z,1.08
2022-08-11T13:21:30.636Z,0.90
2022-08-11T13:24:02.755Z,1.17
2022-08-11T13:26:47.829Z,1.00
2022-08-11T13:29:24.492Z,1.08
2022-08-11T13:31:54.802Z,1.15
2022-08-11T13:36:57.229Z,1.05
2022-08-11T13:39:28.390Z,1.00
2022-08-11T13:42:00.433Z,1.10
2022-08-11T13:44:32.126Z,0.80
2022-08-11T13:47:04.117Z,1.00
2022-08-11T13:49:33.638Z,1.10
2022-08-11T13:52:02.683Z,1.10
2022-08-11T13:54:33.709Z,0.80
2022-08-11T13:57:08.121Z,0.85
2022-08-11T13:59:49.978Z,1.10
2022-08-11T14:02:30.278Z,1.10
2022-08-11T14:05:04.890Z,1.05
2022-08-11T14:07:40.411Z,0.95
2022-08-11T14:10:11.298Z,0.80
2022-08-11T14:13:01.883Z,1.17
2022-08-11T14:15:35.422Z,1.00
2022-08-11T14:18:07.645Z,1.05
2022-08-11T14:20:59.786Z,1.00
2022-08-11T14:23:30.876Z,1.20
2022-08-11T14:26:13.646Z,0.80
2022-08-11T14:28:45.340Z,1.02
2022-08-11T14:31:16.056Z,0.90
2022-08-11T14:34:00.481Z,1.00
2022-08-11T14:36:34.174Z,1.15
2022-08-11T14:39:07.446Z,0.80
2022-08-11T14:42:11.801Z,0.90
2022-08-11T14:45:03.273Z,0.95
2022-08-11T14:47:35.052Z,0.82
2022-08-11T14:50:09.969Z,1.10
2022-08-11T14:52:48.865Z,0.98
2022-08-11T14:55:35.647Z,1.27
2022-08-11T14:58:04.737Z,0.90
2022-08-11T15:00:36.045Z,1.10
2022-08-11T15:03:12.111Z,0.80
2022-08-11T15:05:56.352Z,1.10
2022-08-11T15:08:46.601Z,1.10
2022-08-11T15:11:35.247Z,1.10
2022-08-11T15:14:07.502Z,41.50
2022-08-11T15:16:56.788Z,13.55
2022-08-11T15:19:37.528Z,1.65
2022-08-11T15:22:28.836Z,1.10
2022-08-11T15:24:59.535Z,0.90
2022-08-11T15:27:49.474Z,1.20
2022-08-11T15:30:36.139Z,1.48
2022-08-11T15:33:30.453Z,0.82
2022-08-11T15:36:16.573Z,0.90
2022-08-11T15:38:57.118Z,1.13
2022-08-11T15:41:54.310Z,1.08
2022-08-11T15:45:03.621Z,0.90
2022-08-11T15:47:41.622Z,0.80
2022-08-11T15:50:16.861Z,1.00
2022-08-11T15:52:54.418Z,5.07
2022-08-11T15:55:24.646Z,13.95
2022-08-11T15:58:12.769Z,10.30
2022-08-11T16:00:59.005Z,4.25
2022-08-11T16:04:07.618Z,1.95
2022-08-11T16:06:49.311Z,2.15
2022-08-11T16:09:25.106Z,1.33
2022-08-11T16:11:59.998Z,1.10
2022-08-11T16:14:46.587Z,0.90
2022-08-11T16:17:17.530Z,1.05
2022-08-11T16:19:48.068Z,1.17
2022-08-11T16:22:34.270Z,1.00
2022-08-11T16:27:01.359Z,0.85
2022-08-11T16:27:57.227Z,1.15
2022-08-11T16:30:26.276Z,1.13
2022-08-11T16:32:55.896Z,1.05
2022-08-11T16:35:44.068Z,0.87
2022-08-11T16:38:35.198Z,0.80
2022-08-11T16:41:11.407Z,1.00
2022-08-11T16:44:02.523Z,1.33
2022-08-11T16:46:49.669Z,1.00
2022-08-11T16:49:23.319Z,0.80
2022-08-11T16:51:51.927Z,1.00
2022-08-11T16:54:22.162Z,1.05
2022-08-11T16:56:56.105Z,1.08
2022-08-11T16:59:31.146Z,1.10
2022-08-11T17:02:04.357Z,0.90
2022-08-11T17:05:09.458Z,1.02
2022-08-11T17:08:01.306Z,1.25
2022-08-11T17:11:00.162Z,1.00
2022-08-11T17:13:39.699Z,0.90
2022-08-11T17:16:13.130Z,9.63
2022-08-11T17:18:55.910Z,11.73
2022-08-11T17:21:29.918Z,28.40
2022-08-11T17:24:06.402Z,15.80
2022-08-11T17:26:55.784Z,4.95
2022-08-11T17:29:28.827Z,1.60
2022-08-11T17:32:20.913Z,1.23
2022-08-11T17:35:08.837Z,0.90
2022-08-11T17:37:40.079Z,0.98
2022-08-11T17:40:13.355Z,0.93
2022-08-11T17:43:03.692Z,1.00
2022-08-11T17:45:50.357Z,0.88
2022-08-11T17:48:28.596Z,0.90
2022-08-11T17:51:00.293Z,0.85
2022-08-11T17:54:10.119Z,0.82
2022-08-11T17:56:55.886Z,0.65
2022-08-11T17:59:43.875Z,1.70
2022-08-11T18:02:37.312Z,2.08
2022-08-11T18:05:10.821Z,2.28
2022-08-11T18:08:00.446Z,1.23
2022-08-11T18:10:49.765Z,0.90
2022-08-11T18:13:38.677Z,1.23
2022-08-11T18:16:26.824Z,1.00
2022-08-11T18:19:13.464Z,1.00
2022-08-11T18:22:15.431Z,1.20
2022-08-11T18:25:09.158Z,0.90
2022-08-11T18:27:57.278Z,1.08
2022-08-11T18:30:44.243Z,1.00
2022-08-11T18:33:56.869Z,0.93
2022-08-11T18:36:42.859Z,1.13
2022-08-11T18:39:31.627Z,1.00
2022-08-11T18:42:29.260Z,0.75
2022-08-11T18:45:19.020Z,1.10
2022-08-11T18:48:11.495Z,0.90
2022-08-11T18:51:29.959Z,7.85
2022-08-11T18:54:12.262Z,26.88
2022-08-11T18:59:46.339Z,25.48
2022-08-11T19:02:33.826Z,66.82
2022-08-11T19:06:32.060Z,32.13
2022-08-11T19:08:49.299Z,13.63
2022-08-11T19:11:42.425Z,4.28
2022-08-11T19:14:31.165Z,4.80
2022-08-11T19:17:43.911Z,2.55
2022-08-11T19:20:29.442Z,1.55
2022-08-11T19:23:16.841Z,1.20
2022-08-11T19:26:05.496Z,1.23
2022-08-11T19:28:54.092Z,1.13
2022-08-11T19:31:44.310Z,1.30
2022-08-11T19:34:32.967Z,1.08
2022-08-11T19:37:23.703Z,1.20
2022-08-11T19:40:12.152Z,1.50
2022-08-11T19:43:00.902Z,1.27
2022-08-11T19:45:52.737Z,1.00
2022-08-11T19:48:40.163Z,1.83
2022-08-11T19:51:28.272Z,1.63
2022-08-11T19:54:15.344Z,11.20
2022-08-11T19:57:03.176Z,17.92
2022-08-11T19:59:52.418Z,7.30
2022-08-11T20:02:38.464Z,9.18
2022-08-11T20:05:26.317Z,12.02
2022-08-11T20:08:15.178Z,19.25
2022-08-11T20:11:03.441Z,4.28
2022-08-11T20:13:49.960Z,2.20
2022-08-11T20:16:39.366Z,1.63
2022-08-11T20:19:55.600Z,1.20
2022-08-11T20:22:35.013Z,0.88
2022-08-11T20:25:24.685Z,1.13
2022-08-11T20:28:12.028Z,1.30
2022-08-11T20:30:59.443Z,1.15
2022-08-11T20:33:46.367Z,1.33
2022-08-11T20:36:32.804Z,1.33
2022-08-11T20:39:19.683Z,1.25
2022-08-11T20:42:07.450Z,1.30
2022-08-11T20:44:56.348Z,1.27
2022-08-11T20:47:58.961Z,1.08
2022-08-11T20:50:49.097Z,1.40
2022-08-11T20:53:39.188Z,1.20
2022-08-11T20:56:28.956Z,1.10
2022-08-11T20:59:18.814Z,1.42
2022-08-11T21:02:10.042Z,1.17
2022-08-11T21:04:57.905Z,1.60
2022-08-11T21:07:56.937Z,1.33
2022-08-11T21:10:51.549Z,1.30
2022-08-11T21:13:41.113Z,1.30
2022-08-11T21:16:32.141Z,1.45
2022-08-11T21:20:00.361Z,1.05
2022-08-11T21:22:43.341Z,1.70
2022-08-11T21:25:48.429Z,1.60
2022-08-11T21:28:37.434Z,1.50
2022-08-11T21:31:24.456Z,1.52
2022-08-11T21:34:11.444Z,1.60
2022-08-11T21:36:58.950Z,1.35
2022-08-11T21:39:46.424Z,1.60
2022-08-11T21:42:34.545Z,3.97
2022-08-11T21:45:21.429Z,9.52
2022-08-11T21:48:07.743Z,45.45
2022-08-11T21:50:53.448Z,54.10
2022-08-11T21:53:40.016Z,12.60
2022-08-11T21:56:27.351Z,7.28
2022-08-11T21:59:16.688Z,2.67
2022-08-11T22:02:03.536Z,2.05
2022-08-11T22:04:50.814Z,1.38
2022-08-11T22:07:40.740Z,1.58
2022-08-11T22:10:40.461Z,1.45
2022-08-11T22:13:30.814Z,1.35
2022-08-11T22:16:18.628Z,1.25
2022-08-11T22:19:06.185Z,1.45
2022-08-11T22:22:00.997Z,1.40
2022-08-11T22:24:51.869Z,1.10
2022-08-11T22:27:37.684Z,1.10
2022-08-11T22:30:26.325Z,1.02
2022-08-11T22:33:16.867Z,1.30
2022-08-11T22:36:04.851Z,1.15
2022-08-11T22:38:53.022Z,1.30
2022-08-11T22:41:40.939Z,1.00
2022-08-11T22:44:26.891Z,1.20
2022-08-11T22:47:18.345Z,1.10
2022-08-11T22:50:10.945Z,1.52
2022-08-11T22:52:57.007Z,1.30
2022-08-11T22:55:43.469Z,1.38
2022-08-11T22:58:30.066Z,1.10
2022-08-11T23:01:17.133Z,1.10
2022-08-11T23:04:04.921Z,1.20
2022-08-11T23:06:53.828Z,1.00
2022-08-11T23:09:42.080Z,1.20
2022-08-11T23:12:28.434Z,1.15
2022-08-11T23:15:14.739Z,1.50
2022-08-11T23:18:00.941Z,1.40
2022-08-11T23:20:47.430Z,1.20
2022-08-11T23:23:36.594Z,1.08
2022-08-11T23:26:22.676Z,1.38
2022-08-11T23:29:08.666Z,1.10
2022-08-11T23:31:56.142Z,1.50
2022-08-11T23:35:04.190Z,0.98
2022-08-11T23:37:52.725Z,1.40
2022-08-11T23:40:39.985Z,1.60
2022-08-11T23:43:26.541Z,1.40
2022-08-11T23:46:12.117Z,1.35
2022-08-11T23:48:58.958Z,1.20
2022-08-11T23:51:46.915Z,1.20
2022-08-11T23:54:37.303Z,1.23
2022-08-11T23:57:25.187Z,1.73
